sensor_id;sensor_type;location;lat;lon;timestamp;P1;durP1;ratioP1;P2;durP2;ratioP2
46110;SDS011;31849;55.992;37.252;2022-11-15T04:21:01;3.70;;;1.27;;
46110;SDS011;31849;55.992;37.252;2022-11-15T04:26:22;4.50;;;1.30;;
46110;SDS011;31849;55.992;37.252;2022-11-15T04:31:45;4.05;;;1.42;;
46110;SDS011;31849;55.992;37.252;2022-11-15T04:37:08;4.57;;;1.30;;
46110;SDS011;31849;55.992;37.252;2022-11-15T04:42:33;5.13;;;1.33;;
46110;SDS011;31849;55.992;37.252;2022-11-15T04:47:56;9.48;;;1.30;;
46110;SDS011;31849;55.992;37.252;2022-11-15T04:53:00;3.88;;;1.30;;
46110;SDS011;31849;55.992;37.252;2022-11-15T04:58:04;6.88;;;1.30;;
46110;SDS011;31849;55.992;37.252;2022-11-15T05:03:08;6.38;;;1.30;;
46110;SDS011;31849;55.992;37.252;2022-11-15T05:08:32;5.38;;;1.20;;
46110;SDS011;31849;55.992;37.252;2022-11-15T05:13:35;2.70;;;1.10;;
46110;SDS011;31849;55.992;37.252;2022-11-15T05:18:39;5.15;;;1.15;;
46110;SDS011;31849;55.992;37.252;2022-11-15T05:23:44;3.03;;;1.33;;
46110;SDS011;31849;55.992;37.252;2022-11-15T05:33:55;4.57;;;1.55;;
46110;SDS011;31849;55.992;37.252;2022-11-15T05:39:02;6.47;;;1.33;;
46110;SDS011;31849;55.992;37.252;2022-11-15T05:44:10;8.15;;;1.42;;
46110;SDS011;31849;55.992;37.252;2022-11-15T05:49:17;6.78;;;1.77;;
46110;SDS011;31849;55.992;37.252;2022-11-15T05:54:26;7.53;;;1.60;;
46110;SDS011;31849;55.992;37.252;2022-11-15T05:59:29;5.25;;;1.33;;
46110;SDS011;31849;55.992;37.252;2022-11-15T06:09:39;3.42;;;1.13;;
46110;SDS011;31849;55.992;37.252;2022-11-15T06:14:42;5.25;;;1.45;;
46110;SDS011;31849;55.992;37.252;2022-11-15T06:19:45;3.95;;;1.52;;
46110;SDS011;31849;55.992;37.252;2022-11-15T06:24:50;8.15;;;1.70;;
46110;SDS011;31849;55.992;37.252;2022-11-15T06:29:54;8.18;;;2.10;;
46110;SDS011;31849;55.992;37.252;2022-11-15T06:34:57;7.78;;;2.13;;
46110;SDS011;31849;55.992;37.252;2022-11-15T06:40:02;6.05;;;1.67;;
46110;SDS011;31849;55.992;37.252;2022-11-15T06:45:06;3.40;;;1.50;;
46110;SDS011;31849;55.992;37.252;2022-11-15T06:50:10;5.57;;;2.03;;
46110;SDS011;31849;55.992;37.252;2022-11-15T06:55:15;6.03;;;1.50;;
46110;SDS011;31849;55.992;37.252;2022-11-15T07:05:24;7.18;;;1.73;;
46110;SDS011;31849;55.992;37.252;2022-11-15T07:10:28;6.18;;;2.00;;
46110;SDS011;31849;55.992;37.252;2022-11-15T07:15:32;5.43;;;1.50;;
46110;SDS011;31849;55.992;37.252;2022-11-15T07:20:35;6.57;;;1.65;;
46110;SDS011;31849;55.992;37.252;2022-11-15T07:25:40;6.03;;;2.03;;
46110;SDS011;31849;55.992;37.252;2022-11-15T07:30:44;5.03;;;1.60;;
46110;SDS011;31849;55.992;37.252;2022-11-15T07:35:48;6.38;;;1.70;;
46110;SDS011;31849;55.992;37.252;2022-11-15T07:40:56;4.20;;;1.60;;
46110;SDS011;31849;55.992;37.252;2022-11-15T07:46:03;3.75;;;1.30;;
46110;SDS011;31849;55.992;37.252;2022-11-15T07:51:11;8.38;;;1.70;;
46110;SDS011;31849;55.992;37.252;2022-11-15T07:56:17;5.63;;;1.50;;
46110;SDS011;31849;55.992;37.252;2022-11-15T08:01:22;5.40;;;1.98;;
46110;SDS011;31849;55.992;37.252;2022-11-15T08:06:26;7.70;;;1.67;;
46110;SDS011;31849;55.992;37.252;2022-11-15T08:11:31;3.80;;;1.70;;
46110;SDS011;31849;55.992;37.252;2022-11-15T08:21:37;3.78;;;1.52;;
46110;SDS011;31849;55.992;37.252;2022-11-15T08:26:42;6.18;;;1.70;;
46110;SDS011;31849;55.992;37.252;2022-11-15T08:31:46;3.78;;;1.70;;
46110;SDS011;31849;55.992;37.252;2022-11-15T08:36:49;4.13;;;1.85;;
46110;SDS011;31849;55.992;37.252;2022-11-15T08:41:54;6.18;;;1.58;;
46110;SDS011;31849;55.992;37.252;2022-11-15T08:46:57;5.55;;;1.65;;
46110;SDS011;31849;55.992;37.252;2022-11-15T08:52:01;6.97;;;2.10;;
46110;SDS011;31849;55.992;37.252;2022-11-15T08:57:06;6.45;;;1.88;;
46110;SDS011;31849;55.992;37.252;2022-11-15T09:02:11;10.10;;;2.13;;
46110;SDS011;31849;55.992;37.252;2022-11-15T09:07:16;5.85;;;1.60;;
46110;SDS011;31849;55.992;37.252;2022-11-15T09:12:22;3.33;;;1.60;;
46110;SDS011;31849;55.992;37.252;2022-11-15T09:22:28;10.43;;;2.42;;
46110;SDS011;31849;55.992;37.252;2022-11-15T09:27:33;10.35;;;2.17;;
46110;SDS011;31849;55.992;37.252;2022-11-15T09:37:40;7.00;;;2.05;;
46110;SDS011;31849;55.992;37.252;2022-11-15T09:42:48;5.85;;;1.88;;
46110;SDS011;31849;55.992;37.252;2022-11-15T09:48:02;6.78;;;2.25;;
46110;SDS011;31849;55.992;37.252;2022-11-15T09:53:17;7.82;;;2.20;;
46110;SDS011;31849;55.992;37.252;2022-11-15T09:58:50;9.07;;;2.05;;
46110;SDS011;31849;55.992;37.252;2022-11-15T10:09:13;4.57;;;1.75;;
46110;SDS011;31849;55.992;37.252;2022-11-15T10:14:26;7.13;;;2.38;;
46110;SDS011;31849;55.992;37.252;2022-11-15T10:19:35;5.72;;;1.80;;
46110;SDS011;31849;55.992;37.252;2022-11-15T10:24:45;9.13;;;1.75;;
46110;SDS011;31849;55.992;37.252;2022-11-15T10:29:51;5.18;;;1.85;;
46110;SDS011;31849;55.992;37.252;2022-11-15T10:40:04;7.88;;;2.08;;
46110;SDS011;31849;55.992;37.252;2022-11-15T10:45:22;7.28;;;2.17;;
46110;SDS011;31849;55.992;37.252;2022-11-15T10:50:28;6.03;;;2.03;;
46110;SDS011;31849;55.992;37.252;2022-11-15T10:55:32;7.07;;;2.80;;
46110;SDS011;31849;55.992;37.252;2022-11-15T11:00:39;10.88;;;2.20;;
46110;SDS011;31849;55.992;37.252;2022-11-15T11:05:44;4.50;;;2.40;;
46110;SDS011;31849;55.992;37.252;2022-11-15T11:10:51;11.27;;;2.70;;
46110;SDS011;31849;55.992;37.252;2022-11-15T11:16:09;10.18;;;3.15;;
46110;SDS011;31849;55.992;37.252;2022-11-15T11:21:23;8.68;;;2.50;;
46110;SDS011;31849;55.992;37.252;2022-11-15T11:26:42;9.73;;;3.03;;
46110;SDS011;31849;55.992;37.252;2022-11-15T11:31:58;8.43;;;3.13;;
46110;SDS011;31849;55.992;37.252;2022-11-15T11:37:09;9.30;;;3.45;;
46110;SDS011;31849;55.992;37.252;2022-11-15T11:42:23;6.72;;;3.00;;
46110;SDS011;31849;55.992;37.252;2022-11-15T11:47:36;8.35;;;3.13;;
46110;SDS011;31849;55.992;37.252;2022-11-15T11:52:43;17.23;;;4.05;;
46110;SDS011;31849;55.992;37.252;2022-11-15T11:58:06;18.55;;;3.63;;
46110;SDS011;31849;55.992;37.252;2022-11-15T12:03:18;11.25;;;3.50;;
46110;SDS011;31849;55.992;37.252;2022-11-15T12:08:31;7.97;;;3.00;;
46110;SDS011;31849;55.992;37.252;2022-11-15T12:13:38;17.98;;;4.75;;
46110;SDS011;31849;55.992;37.252;2022-11-15T12:18:46;16.45;;;4.25;;
46110;SDS011;31849;55.992;37.252;2022-11-15T12:23:55;13.55;;;4.05;;
46110;SDS011;31849;55.992;37.252;2022-11-15T12:29:09;12.15;;;4.35;;
46110;SDS011;31849;55.992;37.252;2022-11-15T12:40:14;10.02;;;3.83;;
46110;SDS011;31849;55.992;37.252;2022-11-15T12:45:25;18.58;;;5.05;;
46110;SDS011;31849;55.992;37.252;2022-11-15T13:07:05;12.70;;;4.32;;
46110;SDS011;31849;55.992;37.252;2022-11-15T13:12:10;13.77;;;4.30;;
46110;SDS011;31849;55.992;37.252;2022-11-15T13:17:36;14.98;;;4.30;;
46110;SDS011;31849;55.992;37.252;2022-11-15T13:22:45;12.95;;;4.20;;
46110;SDS011;31849;55.992;37.252;2022-11-15T13:27:56;11.80;;;4.85;;
46110;SDS011;31849;55.992;37.252;2022-11-15T13:33:08;13.23;;;4.95;;
46110;SDS011;31849;55.992;37.252;2022-11-15T13:38:19;11.65;;;5.25;;
46110;SDS011;31849;55.992;37.252;2022-11-15T13:43:32;12.52;;;4.68;;
46110;SDS011;31849;55.992;37.252;2022-11-15T13:48:38;15.52;;;5.60;;
46110;SDS011;31849;55.992;37.252;2022-11-15T13:53:45;15.38;;;5.10;;
46110;SDS011;31849;55.992;37.252;2022-11-15T13:58:59;16.88;;;5.65;;
46110;SDS011;31849;55.992;37.252;2022-11-15T14:04:04;12.48;;;5.07;;
46110;SDS011;31849;55.992;37.252;2022-11-15T15:47:26;23.30;;;10.95;;
46110;SDS011;31849;55.992;37.252;2022-11-15T15:52:31;20.75;;;9.77;;
46110;SDS011;31849;55.992;37.252;2022-11-15T15:57:35;21.88;;;9.75;;
46110;SDS011;31849;55.992;37.252;2022-11-15T16:02:40;20.25;;;8.88;;
46110;SDS011;31849;55.992;37.252;2022-11-15T16:07:44;16.05;;;8.38;;
46110;SDS011;31849;55.992;37.252;2022-11-15T16:12:49;16.67;;;8.10;;
46110;SDS011;31849;55.992;37.252;2022-11-15T16:17:54;11.43;;;5.78;;
46110;SDS011;31849;55.992;37.252;2022-11-15T16:22:58;15.63;;;5.85;;
46110;SDS011;31849;55.992;37.252;2022-11-15T16:28:13;13.77;;;6.93;;
46110;SDS011;31849;55.992;37.252;2022-11-15T16:33:21;16.23;;;6.38;;
46110;SDS011;31849;55.992;37.252;2022-11-15T16:43:28;18.88;;;8.23;;
46110;SDS011;31849;55.992;37.252;2022-11-15T16:48:32;16.05;;;8.13;;
46110;SDS011;31849;55.992;37.252;2022-11-15T16:53:36;17.85;;;8.73;;
46110;SDS011;31849;55.992;37.252;2022-11-15T16:58:40;16.38;;;9.15;;
46110;SDS011;31849;55.992;37.252;2022-11-15T17:03:45;24.50;;;15.43;;
46110;SDS011;31849;55.992;37.252;2022-11-15T17:13:56;18.73;;;8.98;;
46110;SDS011;31849;55.992;37.252;2022-11-15T17:19:01;16.02;;;8.52;;
46110;SDS011;31849;55.992;37.252;2022-11-15T17:24:06;17.35;;;8.25;;
46110;SDS011;31849;55.992;37.252;2022-11-15T17:29:10;20.15;;;9.05;;
46110;SDS011;31849;55.992;37.252;2022-11-15T17:34:15;17.20;;;6.70;;
46110;SDS011;31849;55.992;37.252;2022-11-15T17:44:21;14.05;;;6.18;;
46110;SDS011;31849;55.992;37.252;2022-11-15T17:49:26;14.50;;;5.80;;
46110;SDS011;31849;55.992;37.252;2022-11-15T17:54:30;14.23;;;6.28;;
46110;SDS011;31849;55.992;37.252;2022-11-15T17:59:33;10.23;;;5.88;;
46110;SDS011;31849;55.992;37.252;2022-11-15T18:04:38;14.23;;;6.50;;
46110;SDS011;31849;55.992;37.252;2022-11-15T18:09:41;10.63;;;6.38;;
46110;SDS011;31849;55.992;37.252;2022-11-15T18:14:45;14.40;;;7.40;;
46110;SDS011;31849;55.992;37.252;2022-11-15T18:19:50;12.02;;;7.60;;
46110;SDS011;31849;55.992;37.252;2022-11-15T18:24:53;11.57;;;7.28;;
46110;SDS011;31849;55.992;37.252;2022-11-15T18:29:57;15.15;;;7.75;;
46110;SDS011;31849;55.992;37.252;2022-11-15T18:35:02;19.23;;;9.30;;
46110;SDS011;31849;55.992;37.252;2022-11-15T18:40:07;20.90;;;11.13;;
46110;SDS011;31849;55.992;37.252;2022-11-15T18:45:11;22.55;;;12.07;;
46110;SDS011;31849;55.992;37.252;2022-11-15T18:50:16;22.60;;;11.27;;
46110;SDS011;31849;55.992;37.252;2022-11-15T18:55:20;20.63;;;11.63;;
46110;SDS011;31849;55.992;37.252;2022-11-15T19:00:23;21.55;;;11.05;;
46110;SDS011;31849;55.992;37.252;2022-11-15T19:05:28;20.98;;;10.32;;
46110;SDS011;31849;55.992;37.252;2022-11-15T19:10:32;23.60;;;11.38;;
46110;SDS011;31849;55.992;37.252;2022-11-15T19:15:36;21.90;;;10.32;;
46110;SDS011;31849;55.992;37.252;2022-11-15T19:20:41;16.60;;;9.20;;
46110;SDS011;31849;55.992;37.252;2022-11-15T19:25:52;20.92;;;9.43;;
46110;SDS011;31849;55.992;37.252;2022-11-15T19:31:01;18.60;;;9.60;;
46110;SDS011;31849;55.992;37.252;2022-11-15T19:36:11;19.88;;;9.35;;
46110;SDS011;31849;55.992;37.252;2022-11-15T19:41:16;15.20;;;7.78;;
46110;SDS011;31849;55.992;37.252;2022-11-15T19:46:21;16.27;;;7.75;;
46110;SDS011;31849;55.992;37.252;2022-11-15T19:51:27;15.07;;;7.75;;
46110;SDS011;31849;55.992;37.252;2022-11-15T19:56:32;16.08;;;8.65;;
46110;SDS011;31849;55.992;37.252;2022-11-15T20:01:36;17.42;;;8.23;;
46110;SDS011;31849;55.992;37.252;2022-11-15T20:06:41;13.85;;;7.80;;
46110;SDS011;31849;55.992;37.252;2022-11-15T20:11:45;14.00;;;7.75;;
46110;SDS011;31849;55.992;37.252;2022-11-15T20:16:49;18.98;;;8.70;;
46110;SDS011;31849;55.992;37.252;2022-11-15T20:21:56;17.65;;;9.32;;
46110;SDS011;31849;55.992;37.252;2022-11-15T20:27:00;19.17;;;9.88;;
46110;SDS011;31849;55.992;37.252;2022-11-15T20:32:03;16.02;;;8.82;;
46110;SDS011;31849;55.992;37.252;2022-11-15T20:37:08;17.75;;;9.15;;
46110;SDS011;31849;55.992;37.252;2022-11-15T20:42:12;18.52;;;9.55;;
46110;SDS011;31849;55.992;37.252;2022-11-15T20:47:16;17.77;;;8.50;;
46110;SDS011;31849;55.992;37.252;2022-11-15T20:52:38;17.30;;;8.32;;
46110;SDS011;31849;55.992;37.252;2022-11-15T20:57:41;13.07;;;7.28;;
46110;SDS011;31849;55.992;37.252;2022-11-15T21:02:45;14.40;;;7.28;;
46110;SDS011;31849;55.992;37.252;2022-11-15T21:07:50;17.05;;;7.63;;
46110;SDS011;31849;55.992;37.252;2022-11-15T21:12:53;15.45;;;7.85;;
46110;SDS011;31849;55.992;37.252;2022-11-15T21:17:56;19.52;;;7.72;;
46110;SDS011;31849;55.992;37.252;2022-11-15T21:23:01;19.20;;;7.40;;
46110;SDS011;31849;55.992;37.252;2022-11-15T21:33:08;16.60;;;8.65;;
46110;SDS011;31849;55.992;37.252;2022-11-15T21:38:13;17.08;;;8.45;;
46110;SDS011;31849;55.992;37.252;2022-11-15T21:43:16;16.92;;;8.70;;
46110;SDS011;31849;55.992;37.252;2022-11-15T21:48:20;20.27;;;9.93;;
46110;SDS011;31849;55.992;37.252;2022-11-15T21:53:25;23.42;;;11.77;;
46110;SDS011;31849;55.992;37.252;2022-11-15T21:58:29;22.35;;;13.27;;
46110;SDS011;31849;55.992;37.252;2022-11-15T22:03:34;29.57;;;12.27;;
46110;SDS011;31849;55.992;37.252;2022-11-15T22:08:39;26.10;;;13.27;;
46110;SDS011;31849;55.992;37.252;2022-11-15T22:13:42;26.33;;;11.93;;
46110;SDS011;31849;55.992;37.252;2022-11-15T22:18:45;22.95;;;11.25;;
46110;SDS011;31849;55.992;37.252;2022-11-15T22:23:50;24.38;;;10.85;;
46110;SDS011;31849;55.992;37.252;2022-11-15T22:28:54;20.80;;;10.55;;
46110;SDS011;31849;55.992;37.252;2022-11-15T22:33:57;23.57;;;10.37;;
46110;SDS011;31849;55.992;37.252;2022-11-15T22:39:02;20.70;;;10.35;;
46110;SDS011;31849;55.992;37.252;2022-11-15T22:44:06;18.25;;;9.80;;
46110;SDS011;31849;55.992;37.252;2022-11-15T22:49:10;20.88;;;9.18;;
46110;SDS011;31849;55.992;37.252;2022-11-15T22:54:15;17.42;;;8.27;;
46110;SDS011;31849;55.992;37.252;2022-11-15T23:04:22;20.30;;;9.05;;
46110;SDS011;31849;55.992;37.252;2022-11-15T23:09:26;20.95;;;8.63;;
46110;SDS011;31849;55.992;37.252;2022-11-15T23:14:30;16.65;;;7.72;;
46110;SDS011;31849;55.992;37.252;2022-11-15T23:19:34;18.73;;;7.93;;
46110;SDS011;31849;55.992;37.252;2022-11-15T23:24:39;15.20;;;8.32;;
46110;SDS011;31849;55.992;37.252;2022-11-15T23:35:04;14.68;;;8.55;;
46110;SDS011;31849;55.992;37.252;2022-11-15T23:40:10;15.47;;;8.27;;
46110;SDS011;31849;55.992;37.252;2022-11-15T23:45:14;15.25;;;7.10;;
46110;SDS011;31849;55.992;37.252;2022-11-15T23:50:18;14.37;;;6.63;;
46110;SDS011;31849;55.992;37.252;2022-11-15T23:55:23;13.45;;;6.63;;
